createdAt,value
2017-07-27T00:00:45.332Z,15.30
2017-07-27T00:03:18.609Z,15.30
2017-07-27T00:05:47.995Z,15.30
2017-07-27T00:08:18.470Z,15.50
2017-07-27T00:10:49.327Z,15.50
2017-07-27T00:13:19.168Z,15.50
2017-07-27T00:15:48.107Z,15.50
2017-07-27T00:18:16.398Z,15.50
2017-07-27T00:20:45.360Z,15.50
2017-07-27T00:23:20.197Z,15.60
2017-07-27T00:25:53.995Z,15.60
2017-07-27T00:28:24.586Z,15.60
2017-07-27T00:30:54.453Z,15.70
2017-07-27T00:33:29.431Z,15.60
2017-07-27T00:35:58.559Z,15.60
2017-07-27T00:38:27.556Z,15.70
2017-07-27T00:41:06.249Z,15.70
2017-07-27T00:43:54.573Z,15.70
2017-07-27T00:46:35.187Z,15.50
2017-07-27T00:49:25.312Z,15.50
2017-07-27T00:51:58.340Z,15.40
2017-07-27T00:54:29.933Z,15.40
2017-07-27T00:57:07.614Z,15.30
2017-07-27T00:59:37.762Z,15.20
2017-07-27T01:02:07.935Z,15.20
2017-07-27T01:04:36.016Z,15.10
2017-07-27T01:07:06.946Z,15.10
2017-07-27T01:09:36.483Z,15.00
2017-07-27T01:12:15.159Z,15.00
2017-07-27T01:14:45.194Z,15.00
2017-07-27T01:17:14.720Z,15.00
2017-07-27T01:19:42.836Z,14.90
2017-07-27T01:22:12.789Z,14.90
2017-07-27T01:24:44.538Z,14.90
2017-07-27T01:27:13.781Z,14.80
2017-07-27T01:29:45.642Z,14.90
2017-07-27T01:32:16.349Z,14.90
2017-07-27T01:34:48.701Z,14.90
2017-07-27T01:37:18.166Z,15.00
2017-07-27T01:39:50.220Z,15.10
2017-07-27T01:42:20.037Z,15.10
2017-07-27T01:44:49.723Z,15.10
2017-07-27T01:47:18.773Z,15.20
2017-07-27T01:49:46.946Z,15.30
2017-07-27T01:52:16.357Z,15.30
2017-07-27T01:54:56.077Z,15.30
2017-07-27T01:57:24.251Z,15.30
2017-07-27T01:59:53.644Z,15.40
2017-07-27T02:02:21.863Z,15.40
2017-07-27T02:04:50.803Z,15.40
2017-07-27T02:07:20.294Z,15.40
2017-07-27T02:09:48.412Z,15.40
2017-07-27T02:12:17.304Z,15.40
2017-07-27T02:14:48.719Z,15.40
2017-07-27T02:17:18.236Z,15.50
2017-07-27T02:19:48.870Z,15.40
2017-07-27T02:22:17.010Z,15.40
2017-07-27T02:24:45.693Z,15.40
2017-07-27T02:27:14.708Z,15.40
2017-07-27T02:29:43.725Z,15.40
2017-07-27T02:32:14.661Z,15.40
2017-07-27T02:34:43.659Z,15.40
2017-07-27T02:37:14.560Z,15.40
2017-07-27T02:39:44.968Z,15.40
2017-07-27T02:42:16.785Z,15.40
2017-07-27T02:44:47.782Z,15.50
2017-07-27T02:47:17.336Z,15.50
2017-07-27T02:49:50.565Z,15.50
2017-07-27T02:52:20.510Z,15.50
2017-07-27T02:54:49.991Z,15.50
2017-07-27T02:59:57.345Z,15.50
2017-07-27T03:02:29.777Z,15.50
2017-07-27T03:05:04.289Z,15.50
2017-07-27T03:07:39.226Z,15.50
2017-07-27T03:10:08.041Z,15.50
2017-07-27T03:12:40.208Z,15.60
2017-07-27T03:15:08.281Z,15.60
2017-07-27T03:17:38.118Z,15.60
2017-07-27T03:20:07.649Z,15.60
2017-07-27T03:22:35.780Z,15.60
2017-07-27T03:25:05.747Z,15.60
2017-07-27T03:27:33.907Z,15.60
2017-07-27T03:30:02.022Z,15.60
2017-07-27T03:32:30.709Z,15.60
2017-07-27T03:35:00.840Z,15.60
2017-07-27T03:37:29.945Z,15.70
2017-07-27T03:39:59.204Z,15.80
2017-07-27T03:42:27.405Z,15.80
2017-07-27T03:44:55.531Z,16.00
2017-07-27T03:47:32.444Z,16.10
2017-07-27T03:50:06.103Z,16.10
2017-07-27T03:52:53.058Z,16.00
2017-07-27T03:55:29.674Z,15.90
2017-07-27T03:58:01.056Z,15.90
2017-07-27T04:00:33.551Z,16.00
2017-07-27T04:08:32.864Z,16.10
2017-07-27T04:11:14.307Z,16.10
2017-07-27T04:13:49.702Z,16.20
2017-07-27T04:19:40.115Z,16.20
2017-07-27T04:22:22.976Z,16.30
2017-07-27T04:24:52.547Z,16.30
2017-07-27T04:27:20.697Z,16.40
2017-07-27T04:29:49.443Z,16.40
2017-07-27T04:32:18.125Z,16.40
2017-07-27T04:34:46.209Z,16.50
2017-07-27T04:37:34.361Z,16.70
2017-07-27T04:40:05.693Z,16.80
2017-07-27T04:42:34.758Z,16.80
2017-07-27T04:45:03.697Z,16.90
2017-07-27T04:47:37.821Z,17.00
2017-07-27T04:50:05.913Z,16.90
2017-07-27T04:52:34.665Z,17.00
2017-07-27T04:55:04.001Z,17.10
2017-07-27T04:57:43.813Z,17.10
2017-07-27T05:00:12.564Z,17.10
2017-07-27T05:02:41.552Z,17.10
2017-07-27T05:05:14.768Z,17.10
2017-07-27T05:08:07.437Z,17.10
2017-07-27T05:10:35.530Z,17.00
2017-07-27T05:13:03.669Z,17.10
2017-07-27T05:15:31.798Z,17.10
2017-07-27T05:17:59.943Z,17.10
2017-07-27T05:20:28.063Z,17.20
2017-07-27T05:22:56.165Z,17.20
2017-07-27T05:25:31.099Z,17.30
2017-07-27T05:28:01.656Z,17.40
2017-07-27T05:30:34.317Z,17.40
2017-07-27T05:33:17.388Z,17.50
2017-07-27T05:35:45.562Z,17.50
2017-07-27T05:38:13.732Z,17.50
2017-07-27T05:40:41.826Z,17.50
2017-07-27T05:43:10.028Z,17.70
2017-07-27T05:45:38.136Z,17.80
2017-07-27T05:48:14.971Z,17.90
2017-07-27T05:50:43.146Z,18.00
2017-07-27T05:53:13.088Z,18.10
2017-07-27T05:55:45.580Z,18.30
2017-07-27T05:58:29.644Z,18.70
2017-07-27T06:01:02.891Z,18.70
2017-07-27T06:03:37.321Z,19.10
2017-07-27T06:06:05.579Z,19.30
2017-07-27T06:08:33.675Z,19.40
2017-07-27T06:11:01.781Z,19.60
2017-07-27T06:13:29.920Z,19.60
2017-07-27T06:15:58.810Z,19.30
2017-07-27T06:18:26.967Z,19.30
2017-07-27T06:20:59.519Z,19.10
2017-07-27T06:23:29.395Z,19.20
2017-07-27T06:26:01.662Z,19.20
2017-07-27T06:28:31.542Z,19.10
2017-07-27T06:31:00.499Z,19.10
2017-07-27T06:33:28.628Z,19.00
2017-07-27T06:35:56.766Z,19.00
2017-07-27T06:38:25.964Z,18.80
2017-07-27T06:40:54.190Z,18.80
2017-07-27T06:43:25.549Z,18.60
2017-07-27T06:45:53.697Z,18.50
2017-07-27T06:48:21.890Z,18.40
2017-07-27T06:51:01.023Z,18.30
2017-07-27T06:53:35.013Z,18.30
2017-07-27T06:56:05.417Z,18.30
2017-07-27T06:58:34.292Z,18.40
2017-07-27T07:01:03.442Z,18.50
2017-07-27T07:03:31.606Z,18.50
2017-07-27T07:05:59.736Z,18.60
2017-07-27T07:08:28.668Z,18.60
2017-07-27T07:10:56.849Z,18.60
2017-07-27T07:13:25.008Z,18.60
2017-07-27T07:15:53.165Z,18.60
2017-07-27T07:18:21.343Z,18.60
2017-07-27T07:20:50.430Z,18.70
2017-07-27T07:23:22.220Z,18.70
2017-07-27T07:25:50.360Z,18.70
2017-07-27T07:28:18.506Z,18.70
2017-07-27T07:30:48.461Z,18.60
2017-07-27T07:33:17.942Z,18.50
2017-07-27T07:35:46.068Z,18.70
2017-07-27T07:38:14.243Z,18.70
2017-07-27T07:40:42.369Z,18.70
2017-07-27T07:43:10.568Z,18.90
2017-07-27T07:45:43.909Z,19.00
2017-07-27T07:48:22.093Z,19.30
2017-07-27T07:50:52.930Z,19.50
2017-07-27T07:53:21.109Z,19.60
2017-07-27T07:55:49.252Z,19.50
2017-07-27T07:58:17.555Z,19.40
2017-07-27T08:00:45.664Z,19.40
2017-07-27T08:03:13.801Z,19.30
2017-07-27T08:05:42.188Z,19.10
2017-07-27T08:08:10.377Z,19.20
2017-07-27T08:10:38.525Z,19.40
2017-07-27T08:13:06.659Z,19.50
2017-07-27T08:15:39.608Z,19.70
2017-07-27T08:18:07.856Z,19.80
2017-07-27T08:20:36.079Z,19.90
2017-07-27T08:23:04.253Z,19.90
2017-07-27T08:25:32.472Z,20.00
2017-07-27T08:28:00.621Z,20.10
2017-07-27T08:30:29.302Z,20.20
2017-07-27T08:33:00.715Z,20.40
2017-07-27T08:35:31.073Z,20.60
2017-07-27T08:37:59.223Z,20.70
2017-07-27T08:40:32.065Z,20.90
2017-07-27T08:43:00.183Z,21.40
2017-07-27T08:45:31.494Z,21.70
2017-07-27T08:47:59.756Z,21.70
2017-07-27T08:50:28.859Z,21.90
2017-07-27T08:52:57.023Z,21.90
2017-07-27T08:55:25.155Z,21.70
2017-07-27T08:57:54.254Z,21.50
2017-07-27T09:00:22.430Z,21.30
2017-07-27T09:03:02.347Z,21.10
2017-07-27T09:05:30.631Z,20.90
2017-07-27T09:07:59.957Z,20.70
2017-07-27T09:10:33.898Z,20.70
2017-07-27T09:13:07.612Z,20.60
2017-07-27T09:15:35.894Z,20.70
2017-07-27T09:18:04.052Z,20.60
2017-07-27T09:20:33.218Z,20.60
2017-07-27T09:23:01.989Z,20.60
2017-07-27T09:25:30.186Z,20.80
2017-07-27T09:28:06.261Z,21.30
2017-07-27T09:30:34.489Z,21.30
2017-07-27T09:33:03.455Z,21.80
2017-07-27T09:35:31.661Z,21.80
2017-07-27T09:37:59.934Z,22.20
2017-07-27T09:40:28.155Z,22.30
2017-07-27T09:42:56.344Z,22.50
2017-07-27T09:45:25.327Z,22.40
2017-07-27T09:47:53.656Z,22.50
2017-07-27T09:50:21.972Z,22.50
2017-07-27T09:52:50.133Z,22.60
2017-07-27T09:55:18.993Z,22.90
2017-07-27T09:57:52.852Z,22.90
2017-07-27T10:00:21.418Z,23.00
2017-07-27T10:02:52.751Z,23.10
2017-07-27T10:05:20.995Z,23.20
2017-07-27T10:07:50.404Z,23.30
2017-07-27T10:10:19.626Z,23.50
2017-07-27T10:12:50.800Z,23.50
2017-07-27T10:15:20.510Z,23.50
2017-07-27T10:17:49.949Z,23.60
2017-07-27T10:20:18.123Z,23.60
2017-07-27T10:22:46.576Z,23.60
2017-07-27T10:25:14.919Z,23.60
2017-07-27T10:27:43.972Z,23.60
2017-07-27T10:30:12.368Z,23.60
2017-07-27T10:32:40.738Z,23.50
2017-07-27T10:35:08.916Z,23.30
2017-07-27T10:37:37.064Z,23.20
2017-07-27T10:40:05.276Z,23.10
2017-07-27T10:42:34.687Z,23.00
2017-07-27T10:45:03.872Z,22.80
2017-07-27T10:47:32.116Z,22.80
2017-07-27T10:50:00.322Z,22.70
2017-07-27T10:52:28.661Z,22.50
2017-07-27T10:54:57.546Z,22.30
2017-07-27T10:57:25.902Z,22.30
2017-07-27T10:59:55.341Z,22.10
2017-07-27T11:02:23.541Z,22.00
2017-07-27T11:04:51.697Z,22.10
2017-07-27T11:07:21.612Z,22.30
2017-07-27T11:09:49.825Z,22.50
2017-07-27T11:12:17.986Z,22.70
2017-07-27T11:14:46.101Z,22.90
2017-07-27T11:17:14.383Z,23.20
2017-07-27T11:19:42.603Z,23.30
2017-07-27T11:22:13.847Z,23.30
2017-07-27T11:24:43.493Z,23.40
2017-07-27T11:27:11.589Z,23.50
2017-07-27T11:29:40.369Z,23.90
2017-07-27T11:32:11.465Z,24.10
2017-07-27T11:34:42.149Z,24.00
2017-07-27T11:37:10.871Z,24.00
2017-07-27T11:39:39.015Z,23.90
2017-07-27T11:42:08.355Z,24.00
2017-07-27T11:44:36.863Z,24.00
2017-07-27T11:47:05.226Z,24.00
2017-07-27T11:49:37.096Z,24.10
2017-07-27T11:52:28.578Z,24.00
2017-07-27T11:55:12.079Z,24.10
2017-07-27T11:57:40.312Z,24.20
2017-07-27T12:00:09.863Z,24.00
2017-07-27T12:02:38.098Z,23.80
2017-07-27T12:05:22.717Z,23.70
2017-07-27T12:07:51.652Z,23.60
2017-07-27T12:10:23.117Z,23.60
2017-07-27T12:12:51.304Z,23.60
2017-07-27T12:15:22.383Z,23.60
2017-07-27T12:17:50.745Z,23.60
2017-07-27T12:20:19.555Z,23.60
2017-07-27T12:22:48.155Z,23.80
2017-07-27T12:25:17.583Z,23.90
2017-07-27T12:27:45.830Z,23.80
2017-07-27T12:30:14.021Z,23.70
2017-07-27T12:32:42.239Z,23.40
2017-07-27T12:35:13.303Z,23.20
2017-07-27T12:37:46.450Z,23.10
2017-07-27T12:40:15.849Z,23.10
2017-07-27T12:42:44.971Z,23.10
2017-07-27T12:45:16.752Z,23.20
2017-07-27T12:47:46.773Z,23.20
2017-07-27T12:50:14.961Z,23.40
2017-07-27T12:52:44.254Z,23.80
2017-07-27T12:55:15.702Z,24.10
2017-07-27T12:57:43.982Z,24.60
2017-07-27T13:00:12.148Z,24.60
2017-07-27T13:02:40.356Z,24.40
2017-07-27T13:05:14.748Z,24.30
2017-07-27T13:07:42.915Z,24.20
2017-07-27T13:10:13.179Z,24.20
2017-07-27T13:12:41.904Z,24.20
2017-07-27T13:15:21.607Z,24.30
2017-07-27T13:17:51.263Z,24.30
2017-07-27T13:20:19.506Z,24.30
2017-07-27T13:22:50.154Z,24.30
2017-07-27T13:25:18.378Z,24.20
2017-07-27T13:27:46.632Z,24.20
2017-07-27T13:30:15.694Z,24.20
2017-07-27T13:32:46.421Z,24.20
2017-07-27T13:35:14.570Z,24.30
2017-07-27T13:37:42.783Z,24.20
2017-07-27T13:40:10.966Z,24.00
2017-07-27T13:42:39.527Z,23.60
2017-07-27T13:45:09.043Z,23.40
2017-07-27T13:47:37.249Z,23.40
2017-07-27T13:50:05.704Z,23.40
2017-07-27T13:52:35.191Z,23.30
2017-07-27T13:55:03.961Z,23.40
2017-07-27T13:57:33.931Z,23.50
2017-07-27T14:00:02.963Z,23.60
2017-07-27T14:02:31.165Z,23.60
2017-07-27T14:04:59.327Z,23.50
2017-07-27T14:07:28.224Z,23.80
2017-07-27T14:09:56.390Z,23.80
2017-07-27T14:12:24.531Z,23.80
2017-07-27T14:14:57.453Z,23.70
2017-07-27T14:17:26.401Z,23.90
2017-07-27T14:19:54.605Z,23.90
2017-07-27T14:22:24.642Z,23.50
2017-07-27T14:24:52.942Z,23.20
2017-07-27T14:27:33.500Z,23.20
2017-07-27T14:30:01.724Z,23.10
2017-07-27T14:32:29.830Z,22.80
2017-07-27T14:34:58.021Z,22.60
2017-07-27T14:37:27.275Z,22.20
2017-07-27T14:39:55.420Z,21.90
2017-07-27T14:42:27.548Z,21.70
2017-07-27T14:44:55.676Z,21.50
2017-07-27T14:47:23.855Z,21.50
2017-07-27T14:49:51.998Z,21.50
2017-07-27T14:52:20.127Z,21.60
2017-07-27T14:54:49.317Z,21.70
2017-07-27T14:57:19.241Z,21.80
2017-07-27T14:59:51.134Z,21.80
2017-07-27T15:02:19.374Z,21.70
2017-07-27T15:04:49.359Z,21.50
2017-07-27T15:07:17.604Z,21.30
2017-07-27T15:09:45.731Z,21.20
2017-07-27T15:12:18.794Z,21.30
2017-07-27T15:14:47.059Z,21.40
2017-07-27T15:17:15.422Z,21.50
2017-07-27T15:19:44.304Z,21.60
2017-07-27T15:22:12.562Z,21.60
2017-07-27T15:24:40.744Z,21.60
2017-07-27T15:27:08.969Z,21.70
2017-07-27T15:29:37.273Z,21.90
2017-07-27T15:32:05.608Z,21.90
2017-07-27T15:34:33.912Z,22.00
2017-07-27T15:37:03.106Z,21.90
2017-07-27T15:39:32.302Z,21.90
2017-07-27T15:42:01.783Z,21.80
2017-07-27T15:44:30.756Z,21.50
2017-07-27T15:46:59.078Z,21.40
2017-07-27T15:49:27.605Z,21.20
2017-07-27T15:51:55.815Z,21.30
2017-07-27T15:54:24.017Z,21.20
2017-07-27T15:56:55.142Z,21.30
2017-07-27T15:59:23.371Z,21.50
2017-07-27T16:01:51.639Z,21.60
2017-07-27T16:04:20.054Z,21.50
2017-07-27T16:06:49.101Z,21.70
2017-07-27T16:09:19.080Z,21.70
2017-07-27T16:11:48.662Z,21.70
2017-07-27T16:14:19.414Z,21.60
2017-07-27T16:16:47.695Z,21.80
2017-07-27T16:19:15.985Z,21.80
2017-07-27T16:21:45.015Z,21.60
2017-07-27T16:24:13.198Z,21.50
2017-07-27T16:26:41.460Z,21.50
2017-07-27T16:29:09.615Z,21.40
2017-07-27T16:31:37.856Z,21.40
2017-07-27T16:34:06.019Z,21.10
2017-07-27T16:36:35.154Z,20.80
2017-07-27T16:39:04.132Z,20.60
2017-07-27T16:41:32.462Z,20.60
2017-07-27T16:44:00.904Z,20.50
2017-07-27T16:46:29.044Z,20.60
2017-07-27T16:48:57.217Z,20.60
2017-07-27T16:51:26.721Z,20.70
2017-07-27T16:53:57.880Z,20.90
2017-07-27T16:56:26.897Z,20.70
2017-07-27T16:58:56.297Z,20.70
2017-07-27T17:01:24.807Z,20.50
2017-07-27T17:03:53.004Z,20.30
2017-07-27T17:06:21.922Z,20.30
2017-07-27T17:08:52.217Z,20.30
2017-07-27T17:11:21.543Z,20.20
2017-07-27T17:13:52.452Z,20.00
2017-07-27T17:16:21.874Z,19.90
2017-07-27T17:18:51.297Z,19.80
2017-07-27T17:21:29.350Z,19.80
2017-07-27T17:24:01.324Z,19.80
2017-07-27T17:26:31.331Z,19.70
2017-07-27T17:28:59.476Z,19.60
2017-07-27T17:31:30.040Z,19.60
2017-07-27T17:33:58.350Z,19.60
2017-07-27T17:36:29.187Z,19.60
2017-07-27T17:38:57.336Z,19.70
2017-07-27T17:41:26.295Z,19.60
2017-07-27T17:43:54.478Z,19.60
2017-07-27T17:46:23.320Z,19.60
2017-07-27T17:48:52.956Z,19.60
2017-07-27T17:51:21.087Z,19.70
2017-07-27T17:53:49.280Z,19.60
2017-07-27T17:56:18.675Z,19.70
2017-07-27T17:58:48.217Z,19.60
2017-07-27T18:01:17.322Z,19.60
2017-07-27T18:03:45.435Z,19.70
2017-07-27T18:06:13.776Z,19.50
2017-07-27T18:08:44.237Z,19.50
2017-07-27T18:11:12.360Z,19.60
2017-07-27T18:13:40.516Z,19.60
2017-07-27T18:16:08.702Z,19.60
2017-07-27T18:21:38.178Z,19.70
2017-07-27T18:24:29.989Z,19.60
2017-07-27T18:27:20.292Z,19.40
2017-07-27T18:32:42.059Z,19.10
2017-07-27T18:35:10.336Z,19.00
2017-07-27T18:41:01.896Z,19.00
2017-07-27T18:43:30.036Z,19.00
2017-07-27T18:46:09.668Z,19.00
2017-07-27T18:49:01.453Z,19.00
2017-07-27T18:51:30.496Z,19.00
2017-07-27T18:56:46.647Z,18.90
2017-07-27T18:59:17.343Z,18.80
2017-07-27T19:01:45.469Z,18.70
2017-07-27T19:04:18.135Z,18.60
2017-07-27T19:06:50.092Z,18.50
2017-07-27T19:09:38.116Z,18.40
2017-07-27T19:12:06.316Z,18.30
2017-07-27T19:14:55.581Z,18.20
2017-07-27T19:17:26.000Z,18.20
2017-07-27T19:20:11.764Z,18.10
2017-07-27T19:28:56.989Z,17.80
2017-07-27T20:08:32.993Z,17.80
2017-07-27T20:11:03.662Z,17.90
2017-07-27T20:13:33.888Z,17.80
2017-07-27T20:16:09.350Z,17.80
2017-07-27T20:18:40.921Z,17.80
2017-07-27T20:37:37.559Z,17.90
2017-07-27T20:43:23.291Z,17.90
2017-07-27T20:51:39.014Z,17.80
2017-07-27T20:54:16.085Z,17.90
2017-07-27T21:03:05.897Z,17.80
2017-07-27T21:05:38.486Z,17.80
2017-07-27T21:11:17.108Z,17.80
2017-07-27T21:13:45.310Z,17.70
2017-07-27T21:16:14.059Z,17.70
2017-07-27T21:18:47.635Z,17.60
2017-07-27T21:21:23.239Z,17.60
2017-07-27T21:23:53.658Z,17.50
2017-07-27T21:26:21.836Z,17.60
2017-07-27T21:28:51.871Z,17.60
2017-07-27T21:31:21.610Z,17.70
2017-07-27T21:33:51.360Z,17.60
2017-07-27T21:36:23.790Z,17.50
2017-07-27T21:39:05.620Z,17.40
2017-07-27T21:41:33.970Z,17.40
2017-07-27T21:44:02.901Z,17.40
2017-07-27T21:46:58.569Z,17.40
2017-07-27T21:49:27.512Z,17.40
2017-07-27T21:52:04.278Z,17.40
2017-07-27T21:54:32.970Z,17.50
2017-07-27T21:57:01.994Z,17.50
2017-07-27T21:59:31.696Z,17.50
2017-07-27T22:01:59.805Z,17.50
2017-07-27T22:04:30.030Z,17.50
2017-07-27T22:06:59.215Z,17.40
2017-07-27T22:12:13.639Z,17.30
2017-07-27T22:14:45.106Z,17.30
2017-07-27T22:17:17.011Z,17.30
2017-07-27T22:22:59.276Z,17.30
2017-07-27T22:28:28.806Z,17.30
2017-07-27T22:30:58.925Z,17.40
2017-07-27T22:33:33.446Z,17.40
2017-07-27T22:36:06.293Z,17.40
2017-07-27T22:38:34.748Z,17.40
2017-07-27T22:41:05.308Z,17.30
2017-07-27T22:43:33.433Z,17.30
2017-07-27T22:46:01.565Z,17.10
2017-07-27T22:48:47.108Z,17.10
2017-07-27T22:51:17.568Z,17.00
2017-07-27T22:53:45.737Z,16.80
2017-07-27T22:56:15.041Z,16.80
2017-07-27T22:58:43.840Z,16.70
2017-07-27T23:01:11.966Z,16.70
2017-07-27T23:03:40.450Z,16.50
2017-07-27T23:06:08.619Z,16.40
2017-07-27T23:08:36.791Z,16.30
2017-07-27T23:11:05.891Z,16.20
2017-07-27T23:13:34.013Z,16.10
2017-07-27T23:16:02.189Z,16.10
2017-07-27T23:18:31.230Z,16.00
2017-07-27T23:21:01.937Z,15.90
2017-07-27T23:23:33.646Z,15.90
2017-07-27T23:26:01.788Z,15.90
2017-07-27T23:28:31.570Z,15.80
2017-07-27T23:33:38.417Z,15.70
2017-07-27T23:36:06.641Z,15.60
2017-07-27T23:38:34.884Z,15.60
2017-07-27T23:41:04.113Z,15.60
2017-07-27T23:43:34.592Z,15.70
2017-07-27T23:46:02.719Z,15.70
2017-07-27T23:48:30.870Z,15.80
2017-07-27T23:50:58.973Z,15.90
2017-07-27T23:53:27.886Z,16.00
2017-07-27T23:55:56.023Z,16.00
2017-07-27T23:58:24.653Z,16.00
